createdAt,value
2023-05-03T00:00:26.566Z,17.00
2023-05-03T00:02:54.139Z,17.09
2023-05-03T00:05:20.871Z,17.06
2023-05-03T00:10:43.017Z,16.84
2023-05-03T00:15:44.818Z,16.63
2023-05-03T00:18:11.568Z,16.80
2023-05-03T00:31:25.745Z,16.51
2023-05-03T00:33:52.350Z,16.41
2023-05-03T00:36:18.870Z,16.55
2023-05-03T00:38:45.451Z,16.55
2023-05-03T00:41:13.179Z,16.48
2023-05-03T00:43:44.960Z,16.48
2023-05-03T00:46:17.204Z,16.55
2023-05-03T00:48:46.638Z,16.56
2023-05-03T00:51:15.030Z,16.60
2023-05-03T00:54:19.190Z,16.55
2023-05-03T00:57:16.884Z,16.38
2023-05-03T00:59:43.592Z,16.54
2023-05-03T01:02:10.610Z,16.35
2023-05-03T01:04:38.276Z,16.37
2023-05-03T01:07:26.382Z,16.42
2023-05-03T01:10:10.786Z,16.45
2023-05-03T01:15:50.083Z,16.30
2023-05-03T01:18:22.134Z,16.45
2023-05-03T01:20:50.674Z,16.36
2023-05-03T01:27:05.331Z,16.08
2023-05-03T01:29:31.932Z,16.20
2023-05-03T01:32:04.538Z,16.31
2023-05-03T01:34:48.544Z,16.08
2023-05-03T01:37:15.204Z,16.25
2023-05-03T01:39:56.220Z,16.05
2023-05-03T01:42:30.770Z,16.09
2023-05-03T01:44:58.732Z,16.17
2023-05-03T01:47:26.785Z,16.20
2023-05-03T01:50:01.778Z,16.12
2023-05-03T01:52:52.579Z,16.14
2023-05-03T01:55:43.072Z,16.05
2023-05-03T01:58:15.076Z,15.99
2023-05-03T02:00:41.797Z,16.11
2023-05-03T02:03:08.865Z,16.12
2023-05-03T02:05:35.507Z,16.03
2023-05-03T02:08:02.105Z,15.90
2023-05-03T02:10:28.757Z,15.90
2023-05-03T02:12:55.344Z,15.93
2023-05-03T02:15:21.897Z,16.15
2023-05-03T02:17:49.647Z,16.09
2023-05-03T02:20:16.609Z,16.06
2023-05-03T02:22:43.238Z,16.10
2023-05-03T02:25:09.849Z,16.07
2023-05-03T02:27:56.442Z,16.17
2023-05-03T02:30:47.535Z,16.09
2023-05-03T02:33:19.596Z,16.10
2023-05-03T02:35:46.462Z,16.04
2023-05-03T02:38:13.045Z,16.00
2023-05-03T02:40:39.691Z,15.97
2023-05-03T02:43:12.204Z,15.79
2023-05-03T02:45:38.752Z,15.80
2023-05-03T02:48:06.044Z,15.84
2023-05-03T02:50:32.708Z,16.03
2023-05-03T02:52:59.285Z,15.92
2023-05-03T02:55:25.964Z,15.92
2023-05-03T02:57:52.549Z,15.99
2023-05-03T03:00:19.624Z,15.90
2023-05-03T03:02:46.522Z,16.03
2023-05-03T03:05:13.413Z,15.88
2023-05-03T03:08:07.788Z,15.81
2023-05-03T03:10:59.364Z,16.00
2023-05-03T03:13:31.841Z,16.04
2023-05-03T03:15:58.518Z,16.01
2023-05-03T03:18:25.100Z,16.05
2023-05-03T03:20:51.756Z,16.09
2023-05-03T03:23:18.341Z,16.03
2023-05-03T03:25:44.937Z,15.93
2023-05-03T03:28:11.707Z,15.97
2023-05-03T03:30:38.299Z,16.12
2023-05-03T03:33:04.886Z,16.07
2023-05-03T03:35:32.103Z,16.09
2023-05-03T03:38:23.904Z,15.97
2023-05-03T03:41:38.095Z,16.01
2023-05-03T03:44:04.956Z,15.90
2023-05-03T03:46:32.648Z,15.83
2023-05-03T03:48:59.470Z,15.83
2023-05-03T03:51:26.992Z,16.04
2023-05-03T03:53:55.554Z,16.05
2023-05-03T03:59:03.760Z,15.97
2023-05-03T04:01:30.606Z,16.03
2023-05-03T04:03:57.384Z,15.89
2023-05-03T04:06:24.082Z,15.98
2023-05-03T04:08:50.656Z,15.85
2023-05-03T04:11:32.333Z,16.08
2023-05-03T04:14:14.026Z,16.10
2023-05-03T04:16:59.165Z,15.95
2023-05-03T04:19:26.460Z,16.13
2023-05-03T04:21:53.206Z,16.18
2023-05-03T04:24:19.791Z,16.19
2023-05-03T04:26:46.335Z,16.06
2023-05-03T04:29:12.990Z,16.04
2023-05-03T04:34:15.975Z,16.09
2023-05-03T04:36:42.929Z,16.21
2023-05-03T04:39:11.657Z,16.21
2023-05-03T04:41:38.547Z,16.34
2023-05-03T04:44:05.958Z,16.41
2023-05-03T04:46:44.469Z,16.35
2023-05-03T04:49:35.205Z,16.51
2023-05-03T04:52:06.828Z,16.57
2023-05-03T04:54:33.336Z,16.43
2023-05-03T04:56:59.910Z,16.51
2023-05-03T04:59:26.537Z,16.42
2023-05-03T05:01:58.343Z,16.63
2023-05-03T05:04:25.604Z,16.80
2023-05-03T05:06:54.324Z,16.87
2023-05-03T05:09:26.127Z,16.88
2023-05-03T05:11:53.953Z,16.96
2023-05-03T05:14:23.025Z,16.89
2023-05-03T05:16:49.699Z,16.97
2023-05-03T05:19:16.608Z,17.05
2023-05-03T05:21:43.317Z,16.80
2023-05-03T05:24:10.758Z,17.04
2023-05-03T05:26:37.357Z,17.09
2023-05-03T05:29:03.962Z,17.08
2023-05-03T05:31:30.719Z,17.19
2023-05-03T05:33:57.591Z,17.26
2023-05-03T05:36:24.161Z,17.02
2023-05-03T05:38:50.745Z,17.26
2023-05-03T05:41:17.398Z,17.41
2023-05-03T05:43:45.045Z,17.41
2023-05-03T05:46:11.799Z,17.41
2023-05-03T05:48:39.291Z,17.24
2023-05-03T05:51:06.184Z,17.39
2023-05-03T05:53:32.719Z,17.45
2023-05-03T05:55:59.322Z,17.70
2023-05-03T05:58:25.944Z,17.73
2023-05-03T06:00:52.875Z,17.76
2023-05-03T06:03:19.470Z,17.89
2023-05-03T06:05:46.360Z,18.04
2023-05-03T06:08:13.060Z,18.10
2023-05-03T06:10:40.064Z,18.18
2023-05-03T06:13:06.621Z,18.20
2023-05-03T06:15:53.815Z,18.31
2023-05-03T06:18:20.411Z,18.44
2023-05-03T06:20:53.180Z,18.43
2023-05-03T06:23:19.705Z,18.41
2023-05-03T06:25:55.242Z,18.60
2023-05-03T06:28:52.813Z,18.80
2023-05-03T06:31:34.595Z,18.90
2023-05-03T06:34:01.476Z,19.04
2023-05-03T06:36:30.537Z,19.25
2023-05-03T06:38:57.138Z,19.08
2023-05-03T06:41:23.804Z,19.12
2023-05-03T06:43:50.334Z,19.46
2023-05-03T06:46:19.634Z,19.54
2023-05-03T06:48:46.895Z,19.47
2023-05-03T06:51:13.529Z,19.48
2023-05-03T06:53:40.073Z,19.55
2023-05-03T06:56:07.049Z,19.66
2023-05-03T06:58:33.612Z,19.54
2023-05-03T07:06:24.229Z,19.86
2023-05-03T07:53:12.540Z,20.68
2023-05-03T07:55:39.077Z,20.49
2023-05-03T07:58:05.918Z,20.77
2023-05-03T08:00:32.505Z,20.46
2023-05-03T08:02:59.198Z,20.70
2023-05-03T08:05:36.678Z,20.83
2023-05-03T08:08:30.422Z,20.79
2023-05-03T08:11:07.903Z,20.97
2023-05-03T08:13:34.648Z,21.02
2023-05-03T08:18:36.596Z,20.97
2023-05-03T08:21:03.230Z,20.93
2023-05-03T08:23:29.769Z,21.11
2023-05-03T08:25:56.757Z,21.24
2023-05-03T08:28:23.440Z,21.18
2023-05-03T08:30:50.174Z,21.34
2023-05-03T08:33:16.774Z,21.15
2023-05-03T08:35:43.378Z,21.51
2023-05-03T08:38:09.937Z,21.55
2023-05-03T08:41:02.729Z,21.35
2023-05-03T08:46:39.696Z,21.71
2023-05-03T08:49:09.253Z,21.88
2023-05-03T08:51:44.502Z,22.05
2023-05-03T08:54:12.445Z,21.94
2023-05-03T08:56:43.951Z,21.63
2023-05-03T08:59:11.640Z,21.70
2023-05-03T09:01:40.121Z,22.05
2023-05-03T09:04:08.456Z,21.59
2023-05-03T09:06:36.766Z,21.47
2023-05-03T09:09:08.797Z,21.23
2023-05-03T09:11:37.985Z,21.60
2023-05-03T09:14:17.093Z,21.91
2023-05-03T09:16:45.653Z,21.98
2023-05-03T09:19:13.883Z,22.02
2023-05-03T09:21:42.256Z,22.02
2023-05-03T09:24:23.426Z,22.25
2023-05-03T09:26:51.707Z,22.34
2023-05-03T09:29:29.414Z,22.34
2023-05-03T09:32:05.442Z,22.55
2023-05-03T09:34:32.907Z,22.50
2023-05-03T09:36:59.593Z,22.52
2023-05-03T09:39:26.502Z,22.54
2023-05-03T09:41:53.192Z,22.58
2023-05-03T09:44:20.259Z,22.57
2023-05-03T09:47:06.353Z,22.67
2023-05-03T09:49:33.554Z,22.91
2023-05-03T09:52:01.667Z,22.86
2023-05-03T09:54:29.017Z,22.26
2023-05-03T09:56:55.841Z,22.45
2023-05-03T09:59:22.430Z,22.68
2023-05-03T10:02:32.625Z,22.99
2023-05-03T10:04:59.642Z,22.48
2023-05-03T10:07:28.900Z,22.54
2023-05-03T10:09:59.225Z,22.69
2023-05-03T10:12:27.172Z,22.88
2023-05-03T10:14:57.028Z,22.34
2023-05-03T10:17:43.575Z,22.62
2023-05-03T10:21:20.487Z,22.88
2023-05-03T10:24:09.515Z,22.37
2023-05-03T10:26:36.053Z,22.50
2023-05-03T10:31:51.643Z,22.82
2023-05-03T10:34:25.870Z,22.32
2023-05-03T10:36:55.781Z,22.41
2023-05-03T10:39:23.009Z,22.28
2023-05-03T10:42:01.869Z,22.35
2023-05-03T10:44:51.462Z,22.23
2023-05-03T10:51:33.040Z,21.91
2023-05-03T10:53:59.858Z,22.12
2023-05-03T10:56:26.443Z,22.14
2023-05-03T10:58:56.916Z,22.12
2023-05-03T11:01:26.958Z,21.15
2023-05-03T11:03:56.553Z,21.62
2023-05-03T11:06:34.472Z,21.35
2023-05-03T11:09:02.515Z,21.84
2023-05-03T11:11:29.146Z,21.92
2023-05-03T11:13:55.786Z,21.98
2023-05-03T11:16:22.631Z,21.97
2023-05-03T11:18:50.640Z,21.87
2023-05-03T11:21:17.517Z,21.33
2023-05-03T11:23:44.837Z,21.58
2023-05-03T11:26:12.066Z,21.40
2023-05-03T11:28:42.586Z,21.46
2023-05-03T11:31:10.267Z,21.54
2023-05-03T11:33:38.838Z,21.55
2023-05-03T11:36:08.239Z,21.80
2023-05-03T11:38:36.565Z,21.84
2023-05-03T11:41:14.288Z,21.77
2023-05-03T11:43:45.439Z,21.69
2023-05-03T11:46:14.387Z,21.56
2023-05-03T11:49:01.848Z,21.43
2023-05-03T11:51:28.493Z,20.98
2023-05-03T11:53:56.773Z,21.31
2023-05-03T11:56:24.222Z,21.35
2023-05-03T11:58:57.056Z,21.59
2023-05-03T12:02:17.998Z,21.31
2023-05-03T12:05:04.241Z,21.27
2023-05-03T12:07:31.448Z,21.29
2023-05-03T12:10:10.158Z,21.25
2023-05-03T12:12:52.945Z,21.32
2023-05-03T12:15:30.022Z,21.35
2023-05-03T12:18:00.280Z,21.33
2023-05-03T12:23:04.300Z,21.49
2023-05-03T12:25:33.979Z,21.50
2023-05-03T12:30:34.025Z,21.57
2023-05-03T12:33:04.181Z,21.72
2023-05-03T12:35:58.906Z,21.64
2023-05-03T12:39:10.108Z,21.50
2023-05-03T13:09:21.717Z,21.82
2023-05-03T13:11:54.969Z,21.66
2023-05-03T13:14:21.910Z,20.97
2023-05-03T13:16:49.376Z,21.22
2023-05-03T14:32:24.606Z,21.35
2023-05-03T14:37:39.326Z,21.66
2023-05-03T14:40:09.987Z,21.64
2023-05-03T14:51:35.134Z,21.29
2023-05-03T15:22:06.549Z,21.07
2023-05-03T15:24:33.111Z,21.08
2023-05-03T15:27:02.938Z,21.21
2023-05-03T15:29:29.561Z,21.27
2023-05-03T15:31:56.574Z,21.34
2023-05-03T15:34:23.176Z,21.27
2023-05-03T15:36:49.757Z,21.22
2023-05-03T15:39:16.338Z,21.32
2023-05-03T15:41:45.460Z,21.16
2023-05-03T15:44:14.787Z,21.25
2023-05-03T15:46:42.928Z,20.96
2023-05-03T15:49:10.124Z,21.11
2023-05-03T15:51:37.062Z,21.12
2023-05-03T15:54:03.997Z,21.00
2023-05-03T15:56:31.249Z,21.12
2023-05-03T15:58:57.870Z,21.15
2023-05-03T16:01:24.792Z,21.12
2023-05-03T16:03:51.443Z,21.31
2023-05-03T16:06:18.265Z,21.19
2023-05-03T16:08:45.660Z,21.09
2023-05-03T16:11:12.838Z,21.01
2023-05-03T16:13:39.499Z,20.97
2023-05-03T16:16:06.704Z,20.77
2023-05-03T16:18:33.483Z,20.87
2023-05-03T16:21:06.642Z,20.50
2023-05-03T16:23:33.433Z,20.59
2023-05-03T16:26:00.072Z,20.29
2023-05-03T16:28:26.701Z,20.64
2023-05-03T16:30:53.302Z,20.60
2023-05-03T16:33:20.367Z,20.61
2023-05-03T16:35:46.972Z,20.66
2023-05-03T16:38:13.559Z,20.61
2023-05-03T16:40:40.571Z,20.79
2023-05-03T16:43:07.528Z,20.70
2023-05-03T16:45:34.173Z,20.44
2023-05-03T16:48:03.968Z,20.50
2023-05-03T16:50:32.289Z,20.26
2023-05-03T16:52:58.874Z,20.36
2023-05-03T16:55:25.430Z,20.43
2023-05-03T16:57:51.999Z,20.43
2023-05-03T17:00:20.950Z,20.28
2023-05-03T17:08:08.147Z,20.27
2023-05-03T17:10:36.635Z,20.19
2023-05-03T17:13:03.779Z,20.17
2023-05-03T17:15:32.741Z,20.25
2023-05-03T17:20:35.182Z,20.12
2023-05-03T17:23:01.904Z,19.92
2023-05-03T17:28:03.896Z,19.85
2023-05-03T17:30:30.616Z,19.99
2023-05-03T17:32:58.190Z,19.88
2023-05-03T17:35:24.833Z,19.84
2023-05-03T17:40:53.687Z,19.78
2023-05-03T17:43:20.522Z,19.75
2023-05-03T17:45:49.656Z,19.83
2023-05-03T17:53:58.192Z,19.83
2023-05-03T17:59:13.055Z,19.76
2023-05-03T18:01:39.662Z,19.69
2023-05-03T18:06:41.757Z,19.70
2023-05-03T18:09:08.533Z,19.69
2023-05-03T18:11:35.123Z,19.65
2023-05-03T18:14:01.678Z,19.58
2023-05-03T18:16:28.796Z,19.46
2023-05-03T18:18:55.495Z,19.29
2023-05-03T18:21:23.523Z,19.26
2023-05-03T18:23:50.077Z,19.22
2023-05-03T18:26:17.243Z,19.18
2023-05-03T18:28:43.878Z,19.00
2023-05-03T18:31:11.584Z,19.01
2023-05-03T18:33:40.099Z,18.90
2023-05-03T18:36:11.732Z,18.92
2023-05-03T18:38:39.730Z,18.91
2023-05-03T18:43:46.146Z,18.76
2023-05-03T18:46:18.423Z,18.76
2023-05-03T18:51:27.098Z,18.76
2023-05-03T18:53:54.102Z,18.71
2023-05-03T18:56:20.682Z,18.80
2023-05-03T18:58:47.853Z,18.72
2023-05-03T19:01:14.428Z,18.65
2023-05-03T19:03:41.275Z,18.66
2023-05-03T19:06:10.961Z,18.70
2023-05-03T19:11:33.078Z,18.66
2023-05-03T19:14:00.988Z,18.57
2023-05-03T19:16:27.945Z,18.59
2023-05-03T19:19:13.655Z,18.45
2023-05-03T19:22:05.471Z,18.57
2023-05-03T19:24:37.322Z,18.65
2023-05-03T19:27:04.776Z,18.61
2023-05-03T19:29:31.513Z,18.56
2023-05-03T19:31:58.077Z,18.62
2023-05-03T19:34:24.750Z,18.61
2023-05-03T19:36:51.385Z,18.59
2023-05-03T19:39:17.920Z,18.57
2023-05-03T19:41:44.984Z,18.61
2023-05-03T19:44:12.186Z,18.57
2023-05-03T19:46:38.903Z,18.63
2023-05-03T19:49:05.775Z,18.62
2023-05-03T19:51:33.118Z,18.48
2023-05-03T19:54:04.959Z,18.50
2023-05-03T19:56:31.493Z,18.51
2023-05-03T19:58:58.305Z,18.47
2023-05-03T20:01:24.931Z,18.47
2023-05-03T20:03:53.461Z,18.27
2023-05-03T20:06:20.528Z,18.11
2023-05-03T20:08:47.213Z,18.24
2023-05-03T20:11:13.824Z,18.26
2023-05-03T20:13:40.368Z,18.20
2023-05-03T20:16:08.326Z,18.32
2023-05-03T20:18:35.180Z,18.38
2023-05-03T20:21:03.795Z,18.42
2023-05-03T20:23:30.588Z,18.41
2023-05-03T20:25:57.115Z,18.44
2023-05-03T20:28:24.057Z,18.32
2023-05-03T20:30:50.660Z,18.44
2023-05-03T20:33:17.339Z,18.46
2023-05-03T20:35:44.273Z,18.37
2023-05-03T20:41:13.146Z,18.30
2023-05-03T20:43:39.761Z,18.38
2023-05-03T20:46:06.504Z,18.31
2023-05-03T20:48:33.225Z,18.17
2023-05-03T20:51:00.807Z,18.01
2023-05-03T20:54:27.984Z,17.95
2023-05-03T20:57:47.650Z,18.16
2023-05-03T21:00:17.655Z,18.06
2023-05-03T21:02:47.144Z,17.94
2023-05-03T21:25:55.223Z,18.17
2023-05-03T21:28:23.718Z,18.17
2023-05-03T21:30:50.316Z,18.20
2023-05-03T21:33:16.956Z,18.16
2023-05-03T21:35:43.594Z,18.04
2023-05-03T21:38:10.260Z,17.94
2023-05-03T21:40:36.810Z,17.99
2023-05-03T21:43:21.812Z,17.82
2023-05-03T21:46:13.196Z,17.86
2023-05-03T21:48:40.810Z,17.78
2023-05-03T21:51:07.964Z,17.71
2023-05-03T21:53:35.528Z,17.61
2023-05-03T21:56:02.168Z,17.60
2023-05-03T21:58:29.499Z,17.54
2023-05-03T22:00:56.047Z,17.29
2023-05-03T22:03:22.993Z,17.28
2023-05-03T22:05:51.383Z,17.33
2023-05-03T22:08:18.602Z,17.27
2023-05-03T22:10:46.433Z,17.31
2023-05-03T22:13:49.717Z,17.15
2023-05-03T22:16:38.049Z,17.09
2023-05-03T22:19:05.420Z,16.98
2023-05-03T22:21:31.993Z,16.96
2023-05-03T22:23:58.575Z,16.98
2023-05-03T22:26:25.310Z,16.77
2023-05-03T22:28:52.057Z,16.59
2023-05-03T22:31:18.711Z,16.66
2023-05-03T22:33:50.460Z,16.69
2023-05-03T22:36:17.014Z,16.65
2023-05-03T22:38:43.644Z,16.59
2023-05-03T22:41:10.443Z,16.49
2023-05-03T22:44:01.809Z,16.70
2023-05-03T22:46:54.194Z,16.55
2023-05-03T22:49:20.743Z,16.59
2023-05-03T22:51:47.364Z,16.35
2023-05-03T22:54:13.908Z,16.43
2023-05-03T22:56:40.425Z,16.56
2023-05-03T22:59:07.024Z,16.54
2023-05-03T23:04:29.101Z,16.64
2023-05-03T23:06:55.690Z,16.58
2023-05-03T23:09:22.735Z,16.50
2023-05-03T23:11:56.597Z,16.25
2023-05-03T23:14:46.090Z,16.37
2023-05-03T23:17:31.567Z,16.32
2023-05-03T23:19:58.329Z,16.44
2023-05-03T23:22:24.914Z,16.59
2023-05-03T23:24:51.920Z,16.65
2023-05-03T23:27:20.779Z,16.52
2023-05-03T23:29:48.257Z,16.44
2023-05-03T23:53:15.164Z,16.26
2023-05-03T23:55:41.939Z,16.34
2023-05-03T23:58:09.065Z,16.20
